DLH6CM EDDF-EGLL
Flight info
| Callsign | DLH6CM |
|---|---|
| Flight time | 1h 11m |
| Altitude | 38000 |
| Route | OBOKA2L OBOKA Z29 TORNU DCT ABNED L980 LOGAN |
| Aircraft | A346/H-SDE2E3FGHIJ3J4J5M1RWXY/LB1D1 |
Departure
| Time | 2026-05-06 17:30 |
|---|---|
| Airport | Frankfurt Main Airport (EDDF) |
Arrival
| Time | 2026-05-06 18:41 |
|---|---|
| Airport | London Heathrow Airport (EGLL) |
| Time | Latitude | Longitude | Altitude | Speed | Heading |
|---|---|---|---|---|---|
| 2026-05-06 16:37 | 50.04631 | 8.55966 | 370 ft | 0 kts | 340° |
| 2026-05-06 16:42 | 50.04644 | 8.55944 | 370 ft | 0 kts | 340° |
| 2026-05-06 17:09 | 50.04623 | 8.55958 | 368 ft | 4 kts | 332° |
| 2026-05-06 17:10 | 50.04601 | 8.55980 | 369 ft | 4 kts | 320° |
| 2026-05-06 17:10 | 50.04583 | 8.56008 | 370 ft | 4 kts | 304° |
| 2026-05-06 17:10 | 50.04571 | 8.56043 | 371 ft | 4 kts | 286° |
| 2026-05-06 17:10 | 50.04568 | 8.56082 | 367 ft | 4 kts | 268° |
| 2026-05-06 17:11 | 50.04572 | 8.56121 | 370 ft | 4 kts | 253° |
| 2026-05-06 17:11 | 50.04576 | 8.56140 | 371 ft | 0 kts | 250° |
| 2026-05-06 17:16 | 50.04538 | 8.56005 | 369 ft | 22 kts | 229° |
| 2026-05-06 17:16 | 50.04447 | 8.55932 | 370 ft | 14 kts | 200° |
| 2026-05-06 17:17 | 50.04377 | 8.55922 | 370 ft | 8 kts | 165° |
| 2026-05-06 17:17 | 50.04315 | 8.55949 | 368 ft | 11 kts | 168° |
| 2026-05-06 17:17 | 50.04227 | 8.55937 | 364 ft | 14 kts | 196° |
| 2026-05-06 17:17 | 50.04153 | 8.55949 | 364 ft | 4 kts | 151° |
| 2026-05-06 17:18 | 50.04104 | 8.55989 | 364 ft | 12 kts | 130° |
| 2026-05-06 17:18 | 50.04097 | 8.56129 | 368 ft | 16 kts | 75° |
| 2026-05-06 17:18 | 50.04142 | 8.56338 | 367 ft | 22 kts | 69° |
| 2026-05-06 17:18 | 50.04199 | 8.56571 | 367 ft | 24 kts | 70° |
| 2026-05-06 17:19 | 50.04256 | 8.56818 | 373 ft | 24 kts | 70° |
| 2026-05-06 17:19 | 50.04317 | 8.57075 | 372 ft | 26 kts | 69° |
| 2026-05-06 17:19 | 50.04383 | 8.57348 | 373 ft | 28 kts | 69° |
| 2026-05-06 17:19 | 50.04414 | 8.57478 | 373 ft | 6 kts | 69° |
| 2026-05-06 17:20 | 50.04423 | 8.57512 | 370 ft | 2 kts | 69° |
| 2026-05-06 17:20 | 50.04445 | 8.57604 | 377 ft | 16 kts | 70° |
| 2026-05-06 17:20 | 50.04467 | 8.57700 | 375 ft | 0 kts | 70° |
| 2026-05-06 17:20 | 50.04471 | 8.57717 | 377 ft | 3 kts | 70° |
| 2026-05-06 17:21 | 50.04484 | 8.57769 | 376 ft | 9 kts | 70° |
| 2026-05-06 17:21 | 50.04534 | 8.57979 | 376 ft | 34 kts | 69° |
| 2026-05-06 17:21 | 50.04585 | 8.58195 | 377 ft | 0 kts | 68° |
| 2026-05-06 17:21 | 50.04590 | 8.58214 | 376 ft | 5 kts | 67° |
| 2026-05-06 17:22 | 50.04618 | 8.58319 | 379 ft | 16 kts | 72° |
| 2026-05-06 17:22 | 50.04649 | 8.58495 | 378 ft | 14 kts | 97° |
| 2026-05-06 17:22 | 50.04646 | 8.58514 | 379 ft | 0 kts | 108° |
| 2026-05-06 17:23 | 50.04639 | 8.58535 | 378 ft | 10 kts | 128° |
| 2026-05-06 17:23 | 50.04617 | 8.58567 | 380 ft | 5 kts | 145° |
| 2026-05-06 17:23 | 50.04614 | 8.58569 | 378 ft | 0 kts | 154° |
| 2026-05-06 17:24 | 50.04575 | 8.58599 | 381 ft | 6 kts | 156° |
| 2026-05-06 17:25 | 50.04525 | 8.58612 | 383 ft | 8 kts | 193° |
| 2026-05-06 17:25 | 50.04482 | 8.58555 | 382 ft | 0 kts | 242° |
| 2026-05-06 17:26 | 50.04482 | 8.58553 | 382 ft | 1 kts | 245° |
| 2026-05-06 17:26 | 50.04480 | 8.58545 | 381 ft | 0 kts | 245° |
| 2026-05-06 17:26 | 50.04479 | 8.58545 | 381 ft | 0 kts | 245° |
| 2026-05-06 17:29 | 50.04478 | 8.58540 | 381 ft | 8 kts | 246° |
| 2026-05-06 17:29 | 50.04371 | 8.58101 | 380 ft | 78 kts | 250° |
| 2026-05-06 17:30 | 50.04105 | 8.56986 | 374 ft | 138 kts | 250° |
| 2026-05-06 17:30 | 50.03707 | 8.55347 | 455 ft | 178 kts | 251° |
| 2026-05-06 17:30 | 50.03232 | 8.53497 | 1061 ft | 183 kts | 249° |
| 2026-05-06 17:30 | 50.02713 | 8.51704 | 1848 ft | 184 kts | 245° |
| 2026-05-06 17:31 | 50.01971 | 8.50078 | 2559 ft | 188 kts | 220° |
| 2026-05-06 17:31 | 50.00734 | 8.49204 | 3030 ft | 203 kts | 201° |
| 2026-05-06 17:31 | 49.99367 | 8.48542 | 3668 ft | 206 kts | 199° |
| 2026-05-06 17:31 | 49.97990 | 8.47918 | 4394 ft | 205 kts | 198° |
| 2026-05-06 17:32 | 49.96617 | 8.47302 | 5082 ft | 207 kts | 198° |
| 2026-05-06 17:32 | 49.95194 | 8.46656 | 5531 ft | 224 kts | 198° |
| 2026-05-06 17:32 | 49.93630 | 8.45936 | 6090 ft | 239 kts | 198° |
| 2026-05-06 17:32 | 49.92055 | 8.45040 | 6847 ft | 243 kts | 212° |
| 2026-05-06 17:33 | 49.90809 | 8.43291 | 7721 ft | 244 kts | 234° |
| 2026-05-06 17:33 | 49.89900 | 8.41041 | 8613 ft | 247 kts | 238° |
| 2026-05-06 17:33 | 49.89053 | 8.38690 | 9484 ft | 252 kts | 246° |
| 2026-05-06 17:33 | 49.88614 | 8.36038 | 10282 ft | 258 kts | 264° |
| 2026-05-06 17:34 | 49.88654 | 8.33168 | 10869 ft | 275 kts | 272° |
| 2026-05-06 17:34 | 49.88831 | 8.30108 | 11372 ft | 293 kts | 275° |
| 2026-05-06 17:34 | 49.89311 | 8.26923 | 11840 ft | 314 kts | 288° |
| 2026-05-06 17:34 | 49.90315 | 8.23843 | 12315 ft | 335 kts | 302° |
| 2026-05-06 17:35 | 49.91722 | 8.20813 | 12732 ft | 356 kts | 305° |
| 2026-05-06 17:35 | 49.93323 | 8.17708 | 12808 ft | 378 kts | 309° |
| 2026-05-06 17:35 | 49.95142 | 8.14698 | 12812 ft | 384 kts | 314° |
| 2026-05-06 17:36 | 49.99172 | 8.09174 | 12814 ft | 386 kts | 317° |
| 2026-05-06 17:36 | 50.01217 | 8.06472 | 12815 ft | 386 kts | 318° |
| 2026-05-06 17:36 | 50.03263 | 8.03760 | 12817 ft | 386 kts | 317° |
| 2026-05-06 17:36 | 50.05301 | 8.01045 | 12816 ft | 385 kts | 317° |
| 2026-05-06 17:37 | 50.07333 | 7.98325 | 12817 ft | 385 kts | 317° |
| 2026-05-06 17:37 | 50.09368 | 7.95596 | 12814 ft | 385 kts | 317° |
| 2026-05-06 17:37 | 50.11396 | 7.92870 | 12815 ft | 385 kts | 317° |
| 2026-05-06 17:37 | 50.13443 | 7.90112 | 12951 ft | 394 kts | 317° |
| 2026-05-06 17:38 | 50.15534 | 7.87292 | 13835 ft | 396 kts | 317° |
| 2026-05-06 17:38 | 50.17585 | 7.84523 | 14835 ft | 395 kts | 317° |
| 2026-05-06 17:38 | 50.19699 | 7.81666 | 15683 ft | 399 kts | 317° |
| 2026-05-06 17:38 | 50.21783 | 7.78846 | 16416 ft | 404 kts | 317° |
| 2026-05-06 17:39 | 50.24005 | 7.76000 | 17178 ft | 410 kts | 322° |
| 2026-05-06 17:39 | 50.26392 | 7.73518 | 17975 ft | 415 kts | 328° |
| 2026-05-06 17:39 | 50.28974 | 7.71407 | 18649 ft | 421 kts | 333° |
| 2026-05-06 17:39 | 50.31626 | 7.69553 | 19282 ft | 426 kts | 335° |
| 2026-05-06 17:40 | 50.34362 | 7.67711 | 19954 ft | 430 kts | 335° |
| 2026-05-06 17:40 | 50.37129 | 7.65846 | 20631 ft | 434 kts | 335° |
| 2026-05-06 17:40 | 50.39913 | 7.63952 | 21301 ft | 438 kts | 335° |
| 2026-05-06 17:40 | 50.42717 | 7.62030 | 21963 ft | 442 kts | 335° |
| 2026-05-06 17:41 | 50.45554 | 7.60076 | 22603 ft | 446 kts | 335° |
| 2026-05-06 17:41 | 50.48417 | 7.58100 | 23250 ft | 451 kts | 335° |
| 2026-05-06 17:41 | 50.51309 | 7.56103 | 23806 ft | 455 kts | 335° |
| 2026-05-06 17:41 | 50.54189 | 7.53988 | 24330 ft | 458 kts | 332° |
| 2026-05-06 17:42 | 50.56980 | 7.51648 | 24848 ft | 462 kts | 329° |
| 2026-05-06 17:42 | 50.59741 | 7.49021 | 25372 ft | 465 kts | 326° |
| 2026-05-06 17:42 | 50.62473 | 7.46245 | 25909 ft | 469 kts | 326° |
| 2026-05-06 17:42 | 50.65215 | 7.43408 | 26422 ft | 473 kts | 326° |
| 2026-05-06 17:43 | 50.67979 | 7.40546 | 26895 ft | 477 kts | 326° |
| 2026-05-06 17:43 | 50.70749 | 7.37632 | 27369 ft | 480 kts | 323° |
| 2026-05-06 17:43 | 50.73295 | 7.34197 | 27856 ft | 482 kts | 314° |
| 2026-05-06 17:43 | 50.75474 | 7.30168 | 28475 ft | 481 kts | 304° |
| 2026-05-06 17:44 | 50.77228 | 7.25690 | 29275 ft | 476 kts | 297° |
| 2026-05-06 17:44 | 50.78754 | 7.21064 | 30070 ft | 473 kts | 295° |
| 2026-05-06 17:44 | 50.80232 | 7.16426 | 30731 ft | 471 kts | 295° |
| 2026-05-06 17:44 | 50.81700 | 7.11810 | 31347 ft | 469 kts | 295° |
| 2026-05-06 17:45 | 50.83173 | 7.07204 | 31952 ft | 468 kts | 295° |
| 2026-05-06 17:45 | 50.84654 | 7.02602 | 32555 ft | 467 kts | 295° |
| 2026-05-06 17:45 | 50.86127 | 6.98035 | 33170 ft | 466 kts | 295° |
| 2026-05-06 17:45 | 50.87604 | 6.93460 | 33775 ft | 465 kts | 295° |
| 2026-05-06 17:46 | 50.89077 | 6.88897 | 34289 ft | 464 kts | 294° |
| 2026-05-06 17:46 | 50.90540 | 6.84347 | 34756 ft | 463 kts | 294° |
| 2026-05-06 17:46 | 50.92000 | 6.79797 | 35213 ft | 462 kts | 294° |
| 2026-05-06 17:46 | 50.93456 | 6.75248 | 35643 ft | 462 kts | 294° |
| 2026-05-06 17:47 | 50.94911 | 6.70693 | 36080 ft | 461 kts | 294° |
| 2026-05-06 17:47 | 50.96360 | 6.66149 | 36447 ft | 462 kts | 294° |
| 2026-05-06 17:47 | 50.97789 | 6.61655 | 36763 ft | 463 kts | 294° |
| 2026-05-06 17:47 | 50.99242 | 6.57079 | 37046 ft | 465 kts | 294° |
| 2026-05-06 17:48 | 51.00721 | 6.52411 | 37340 ft | 467 kts | 294° |
| 2026-05-06 17:48 | 51.02183 | 6.47792 | 37622 ft | 468 kts | 294° |
| 2026-05-06 17:48 | 51.03648 | 6.43151 | 37850 ft | 470 kts | 294° |
| 2026-05-06 17:48 | 51.05114 | 6.38498 | 37857 ft | 471 kts | 294° |
| 2026-05-06 17:49 | 51.08022 | 6.29242 | 37886 ft | 471 kts | 294° |
| 2026-05-06 17:49 | 51.11039 | 6.19599 | 37886 ft | 471 kts | 294° |
| 2026-05-06 17:50 | 51.13669 | 6.10070 | 37879 ft | 469 kts | 288° |
| 2026-05-06 17:50 | 51.15633 | 6.00182 | 37883 ft | 467 kts | 283° |
| 2026-05-06 17:51 | 51.17261 | 5.90167 | 37880 ft | 467 kts | 283° |
| 2026-05-06 17:51 | 51.19222 | 5.80273 | 37884 ft | 468 kts | 288° |
| 2026-05-06 17:52 | 51.21697 | 5.70636 | 37889 ft | 469 kts | 290° |
| 2026-05-06 17:52 | 51.24236 | 5.61036 | 37901 ft | 469 kts | 290° |
| 2026-05-06 17:53 | 51.26765 | 5.51422 | 37899 ft | 469 kts | 290° |
| 2026-05-06 17:53 | 51.29280 | 5.41799 | 37904 ft | 469 kts | 290° |
| 2026-05-06 17:54 | 51.31784 | 5.32170 | 37915 ft | 469 kts | 290° |
| 2026-05-06 17:54 | 51.34280 | 5.22529 | 37909 ft | 468 kts | 290° |
| 2026-05-06 17:55 | 51.36765 | 5.12885 | 37907 ft | 468 kts | 290° |
| 2026-05-06 17:55 | 51.39242 | 5.03233 | 37906 ft | 468 kts | 290° |
| 2026-05-06 17:56 | 51.41708 | 4.93583 | 37909 ft | 468 kts | 290° |
| 2026-05-06 17:56 | 51.44167 | 4.83924 | 37915 ft | 467 kts | 290° |
| 2026-05-06 17:57 | 51.46614 | 4.74261 | 37927 ft | 467 kts | 290° |
| 2026-05-06 17:57 | 51.49052 | 4.64597 | 37901 ft | 466 kts | 290° |
| 2026-05-06 17:58 | 51.51462 | 4.55007 | 37904 ft | 466 kts | 290° |
| 2026-05-06 17:58 | 51.53880 | 4.45338 | 37907 ft | 466 kts | 290° |
| 2026-05-06 17:59 | 51.56287 | 4.35668 | 37911 ft | 465 kts | 290° |
| 2026-05-06 17:59 | 51.58687 | 4.25991 | 37908 ft | 465 kts | 290° |
| 2026-05-06 18:00 | 51.61075 | 4.16317 | 37902 ft | 465 kts | 290° |
| 2026-05-06 18:00 | 51.63452 | 4.06643 | 37901 ft | 464 kts | 290° |
| 2026-05-06 18:01 | 51.65819 | 3.96969 | 37906 ft | 463 kts | 290° |
| 2026-05-06 18:01 | 51.68175 | 3.87299 | 37898 ft | 463 kts | 290° |
| 2026-05-06 18:02 | 51.70518 | 3.77637 | 37902 ft | 462 kts | 290° |
| 2026-05-06 18:02 | 51.72851 | 3.67972 | 37909 ft | 461 kts | 289° |
| 2026-05-06 18:03 | 51.75172 | 3.58312 | 37912 ft | 461 kts | 289° |
| 2026-05-06 18:03 | 51.77481 | 3.48652 | 37925 ft | 461 kts | 289° |
| 2026-05-06 18:04 | 51.79780 | 3.38987 | 37921 ft | 460 kts | 289° |
| 2026-05-06 18:04 | 51.82017 | 3.29287 | 37934 ft | 459 kts | 286° |
| 2026-05-06 18:05 | 51.83534 | 3.19265 | 37938 ft | 457 kts | 278° |
| 2026-05-06 18:05 | 51.84135 | 3.09040 | 37535 ft | 454 kts | 270° |
| 2026-05-06 18:06 | 51.84095 | 3.03942 | 36407 ft | 453 kts | 266° |
| 2026-05-06 18:06 | 51.83834 | 2.98908 | 35800 ft | 445 kts | 264° |
| 2026-05-06 18:06 | 51.83532 | 2.93925 | 35279 ft | 443 kts | 264° |
| 2026-05-06 18:06 | 51.83229 | 2.88983 | 34761 ft | 440 kts | 264° |
| 2026-05-06 18:07 | 51.82925 | 2.84063 | 34231 ft | 439 kts | 264° |
| 2026-05-06 18:07 | 51.82622 | 2.79134 | 33670 ft | 441 kts | 264° |
| 2026-05-06 18:07 | 51.82318 | 2.74183 | 33009 ft | 442 kts | 264° |
| 2026-05-06 18:07 | 51.82014 | 2.69242 | 32437 ft | 442 kts | 264° |
| 2026-05-06 18:08 | 51.81706 | 2.64287 | 31856 ft | 442 kts | 264° |
| 2026-05-06 18:08 | 51.81398 | 2.59385 | 31193 ft | 444 kts | 264° |
| 2026-05-06 18:08 | 51.81084 | 2.54420 | 30557 ft | 445 kts | 264° |
| 2026-05-06 18:08 | 51.80766 | 2.49432 | 29906 ft | 446 kts | 264° |
| 2026-05-06 18:09 | 51.80444 | 2.44433 | 29159 ft | 446 kts | 264° |
| 2026-05-06 18:09 | 51.80120 | 2.39446 | 28456 ft | 446 kts | 264° |
| 2026-05-06 18:09 | 51.79795 | 2.34459 | 27772 ft | 446 kts | 264° |
| 2026-05-06 18:09 | 51.79468 | 2.29476 | 27242 ft | 447 kts | 264° |
| 2026-05-06 18:10 | 51.79139 | 2.24476 | 26824 ft | 445 kts | 264° |
| 2026-05-06 18:10 | 51.78812 | 2.19549 | 26599 ft | 435 kts | 264° |
| 2026-05-06 18:10 | 51.78492 | 2.14760 | 26491 ft | 421 kts | 264° |
| 2026-05-06 18:10 | 51.78280 | 2.11607 | 26413 ft | 412 kts | 264° |
| 2026-05-06 18:11 | 51.77974 | 2.07074 | 26270 ft | 400 kts | 264° |
| 2026-05-06 18:11 | 51.77678 | 2.02713 | 26120 ft | 389 kts | 264° |
| 2026-05-06 18:11 | 51.77385 | 1.98420 | 26023 ft | 377 kts | 264° |
| 2026-05-06 18:11 | 51.77100 | 1.94275 | 25923 ft | 365 kts | 264° |
| 2026-05-06 18:12 | 51.76822 | 1.90254 | 25834 ft | 354 kts | 263° |
| 2026-05-06 18:12 | 51.76552 | 1.86364 | 25709 ft | 343 kts | 263° |
| 2026-05-06 18:12 | 51.76285 | 1.82551 | 25627 ft | 331 kts | 263° |
| 2026-05-06 18:12 | 51.76034 | 1.78968 | 25558 ft | 319 kts | 263° |
| 2026-05-06 18:13 | 51.75788 | 1.75471 | 25475 ft | 308 kts | 263° |
| 2026-05-06 18:13 | 51.75545 | 1.72050 | 25396 ft | 306 kts | 263° |
| 2026-05-06 18:13 | 51.75302 | 1.68634 | 25297 ft | 306 kts | 263° |
| 2026-05-06 18:13 | 51.75059 | 1.65225 | 25187 ft | 306 kts | 263° |
| 2026-05-06 18:14 | 51.74807 | 1.61699 | 25056 ft | 329 kts | 263° |
| 2026-05-06 18:14 | 51.74555 | 1.57938 | 24606 ft | 342 kts | 264° |
| 2026-05-06 18:14 | 51.74314 | 1.54099 | 24145 ft | 343 kts | 264° |
| 2026-05-06 18:14 | 51.74076 | 1.50293 | 23831 ft | 339 kts | 264° |
| 2026-05-06 18:15 | 51.73837 | 1.46519 | 23466 ft | 336 kts | 264° |
| 2026-05-06 18:15 | 51.73597 | 1.42776 | 23034 ft | 334 kts | 264° |
| 2026-05-06 18:15 | 51.73355 | 1.39054 | 22606 ft | 332 kts | 264° |
| 2026-05-06 18:15 | 51.73114 | 1.35358 | 22188 ft | 330 kts | 264° |
| 2026-05-06 18:16 | 51.72873 | 1.31686 | 21779 ft | 328 kts | 264° |
| 2026-05-06 18:16 | 51.72633 | 1.28037 | 21370 ft | 326 kts | 264° |
| 2026-05-06 18:16 | 51.72392 | 1.24411 | 20975 ft | 324 kts | 264° |
| 2026-05-06 18:16 | 51.72152 | 1.20812 | 20580 ft | 322 kts | 264° |
| 2026-05-06 18:17 | 51.71912 | 1.17227 | 20190 ft | 320 kts | 264° |
| 2026-05-06 18:17 | 51.71672 | 1.13664 | 19804 ft | 318 kts | 264° |
| 2026-05-06 18:17 | 51.71432 | 1.10122 | 19426 ft | 316 kts | 264° |
| 2026-05-06 18:17 | 51.71192 | 1.06594 | 19046 ft | 315 kts | 264° |
| 2026-05-06 18:18 | 51.70952 | 1.03087 | 18687 ft | 313 kts | 264° |
| 2026-05-06 18:18 | 51.70712 | 0.99584 | 18312 ft | 312 kts | 264° |
| 2026-05-06 18:18 | 51.70473 | 0.96109 | 17896 ft | 311 kts | 264° |
| 2026-05-06 18:18 | 51.70235 | 0.92650 | 17484 ft | 309 kts | 264° |
| 2026-05-06 18:19 | 51.69998 | 0.89212 | 17081 ft | 308 kts | 264° |
| 2026-05-06 18:19 | 51.69760 | 0.85789 | 16679 ft | 306 kts | 264° |
| 2026-05-06 18:19 | 51.69521 | 0.82383 | 16288 ft | 305 kts | 264° |
| 2026-05-06 18:19 | 51.69282 | 0.78990 | 15909 ft | 303 kts | 264° |
| 2026-05-06 18:20 | 51.69043 | 0.75617 | 15524 ft | 302 kts | 264° |
| 2026-05-06 18:20 | 51.68805 | 0.72257 | 15157 ft | 301 kts | 264° |
| 2026-05-06 18:20 | 51.68567 | 0.68912 | 14796 ft | 299 kts | 264° |
| 2026-05-06 18:20 | 51.68330 | 0.65581 | 14442 ft | 298 kts | 264° |
| 2026-05-06 18:21 | 51.68093 | 0.62274 | 14091 ft | 296 kts | 264° |
| 2026-05-06 18:21 | 51.67856 | 0.58973 | 13725 ft | 295 kts | 264° |
| 2026-05-06 18:21 | 51.67618 | 0.55691 | 13337 ft | 294 kts | 264° |
| 2026-05-06 18:21 | 51.67381 | 0.52428 | 12951 ft | 292 kts | 264° |
| 2026-05-06 18:22 | 51.67145 | 0.49175 | 12572 ft | 290 kts | 264° |
| 2026-05-06 18:22 | 51.66911 | 0.45948 | 12194 ft | 289 kts | 264° |
| 2026-05-06 18:22 | 51.66676 | 0.42732 | 11817 ft | 287 kts | 264° |
| 2026-05-06 18:22 | 51.66441 | 0.39544 | 11462 ft | 286 kts | 264° |
| 2026-05-06 18:23 | 51.66207 | 0.36369 | 11091 ft | 284 kts | 264° |
| 2026-05-06 18:23 | 51.65972 | 0.33209 | 10736 ft | 283 kts | 264° |
| 2026-05-06 18:23 | 51.65737 | 0.30068 | 10382 ft | 281 kts | 264° |
| 2026-05-06 18:23 | 51.65483 | 0.26948 | 10028 ft | 281 kts | 262° |
| 2026-05-06 18:24 | 51.65161 | 0.23845 | 9576 ft | 278 kts | 261° |
| 2026-05-06 18:24 | 51.64830 | 0.20824 | 9150 ft | 269 kts | 261° |
| 2026-05-06 18:24 | 51.64511 | 0.17949 | 8988 ft | 250 kts | 261° |
| 2026-05-06 18:24 | 51.64209 | 0.15245 | 8992 ft | 248 kts | 261° |
| 2026-05-06 18:25 | 51.63898 | 0.12460 | 8994 ft | 248 kts | 261° |
| 2026-05-06 18:25 | 51.63597 | 0.09762 | 8989 ft | 248 kts | 261° |
| 2026-05-06 18:25 | 51.63293 | 0.07019 | 9023 ft | 247 kts | 261° |
| 2026-05-06 18:25 | 51.62989 | 0.04305 | 9004 ft | 245 kts | 261° |
| 2026-05-06 18:26 | 51.62686 | 0.01600 | 9001 ft | 245 kts | 261° |
| 2026-05-06 18:26 | 51.62377 | -0.01145 | 8997 ft | 245 kts | 261° |
| 2026-05-06 18:26 | 51.62080 | -0.03810 | 8992 ft | 245 kts | 261° |
| 2026-05-06 18:26 | 51.61774 | -0.06546 | 8664 ft | 248 kts | 261° |
| 2026-05-06 18:27 | 51.61470 | -0.09295 | 8269 ft | 250 kts | 261° |
| 2026-05-06 18:27 | 51.61169 | -0.12072 | 7934 ft | 252 kts | 261° |
| 2026-05-06 18:27 | 51.60871 | -0.14866 | 7533 ft | 254 kts | 261° |
| 2026-05-06 18:27 | 51.60578 | -0.17652 | 7142 ft | 249 kts | 261° |
| 2026-05-06 18:28 | 51.60299 | -0.20332 | 7046 ft | 241 kts | 261° |
| 2026-05-06 18:28 | 51.60020 | -0.23007 | 7047 ft | 242 kts | 261° |
| 2026-05-06 18:28 | 51.59739 | -0.25670 | 7044 ft | 241 kts | 261° |
| 2026-05-06 18:28 | 51.59454 | -0.28335 | 6992 ft | 241 kts | 261° |
| 2026-05-06 18:29 | 51.59166 | -0.30996 | 7014 ft | 241 kts | 261° |
| 2026-05-06 18:29 | 51.58875 | -0.33657 | 7006 ft | 241 kts | 261° |
| 2026-05-06 18:29 | 51.58582 | -0.36310 | 7002 ft | 241 kts | 261° |
| 2026-05-06 18:29 | 51.58286 | -0.38958 | 6997 ft | 240 kts | 261° |
| 2026-05-06 18:30 | 51.57986 | -0.41603 | 6995 ft | 240 kts | 261° |
| 2026-05-06 18:30 | 51.57682 | -0.44250 | 6993 ft | 240 kts | 261° |
| 2026-05-06 18:30 | 51.57375 | -0.46896 | 6994 ft | 240 kts | 261° |
| 2026-05-06 18:30 | 51.57163 | -0.49553 | 6993 ft | 239 kts | 268° |
| 2026-05-06 18:31 | 51.57102 | -0.52219 | 6992 ft | 238 kts | 270° |
| 2026-05-06 18:31 | 51.57069 | -0.54886 | 6995 ft | 238 kts | 271° |
| 2026-05-06 18:31 | 51.57042 | -0.57553 | 6994 ft | 238 kts | 271° |
| 2026-05-06 18:31 | 51.57014 | -0.60235 | 6795 ft | 241 kts | 271° |
| 2026-05-06 18:32 | 51.56988 | -0.62947 | 6427 ft | 244 kts | 271° |
| 2026-05-06 18:32 | 51.56963 | -0.65701 | 6029 ft | 247 kts | 271° |
| 2026-05-06 18:32 | 51.56939 | -0.68483 | 5613 ft | 249 kts | 271° |
| 2026-05-06 18:32 | 51.56913 | -0.71287 | 5229 ft | 252 kts | 271° |
| 2026-05-06 18:33 | 51.56887 | -0.74091 | 4999 ft | 247 kts | 271° |
| 2026-05-06 18:33 | 51.56860 | -0.76768 | 4962 ft | 231 kts | 271° |
| 2026-05-06 18:33 | 51.56833 | -0.79254 | 4996 ft | 216 kts | 271° |
| 2026-05-06 18:33 | 51.56805 | -0.81577 | 4981 ft | 207 kts | 271° |
| 2026-05-06 18:34 | 51.56706 | -0.83894 | 4976 ft | 209 kts | 254° |
| 2026-05-06 18:34 | 51.55946 | -0.85820 | 5006 ft | 201 kts | 222° |
| 2026-05-06 18:34 | 51.54807 | -0.87082 | 5027 ft | 198 kts | 213° |
| 2026-05-06 18:34 | 51.53610 | -0.88192 | 4978 ft | 198 kts | 211° |
| 2026-05-06 18:35 | 51.52409 | -0.89273 | 4739 ft | 197 kts | 210° |
| 2026-05-06 18:35 | 51.51116 | -0.89925 | 4451 ft | 197 kts | 178° |
| 2026-05-06 18:35 | 51.49858 | -0.89181 | 4177 ft | 195 kts | 137° |
| 2026-05-06 18:35 | 51.49085 | -0.87425 | 4012 ft | 192 kts | 115° |
| 2026-05-06 18:36 | 51.48528 | -0.85468 | 4008 ft | 192 kts | 110° |
| 2026-05-06 18:36 | 51.48052 | -0.83459 | 4000 ft | 191 kts | 106° |
| 2026-05-06 18:36 | 51.47729 | -0.81395 | 4001 ft | 190 kts | 96° |
| 2026-05-06 18:36 | 51.47605 | -0.79287 | 3925 ft | 189 kts | 89° |
| 2026-05-06 18:37 | 51.47626 | -0.77190 | 3668 ft | 186 kts | 85° |
| 2026-05-06 18:37 | 51.47658 | -0.75814 | 3492 ft | 185 kts | 85° |
| 2026-05-06 18:37 | 51.47701 | -0.73129 | 3142 ft | 177 kts | 86° |
| 2026-05-06 18:37 | 51.47714 | -0.71192 | 2901 ft | 169 kts | 86° |
| 2026-05-06 18:38 | 51.47717 | -0.69357 | 2678 ft | 162 kts | 86° |
| 2026-05-06 18:38 | 51.47718 | -0.67545 | 2500 ft | 162 kts | 86° |
| 2026-05-06 18:38 | 51.47718 | -0.65748 | 2286 ft | 161 kts | 86° |
| 2026-05-06 18:38 | 51.47717 | -0.63950 | 2064 ft | 161 kts | 86° |
| 2026-05-06 18:39 | 51.47720 | -0.62147 | 1838 ft | 162 kts | 86° |
| 2026-05-06 18:39 | 51.47722 | -0.60342 | 1610 ft | 161 kts | 86° |
| 2026-05-06 18:39 | 51.47725 | -0.58543 | 1377 ft | 160 kts | 86° |
| 2026-05-06 18:40 | 51.47730 | -0.55111 | 921 ft | 150 kts | 86° |
| 2026-05-06 18:40 | 51.47734 | -0.53444 | 701 ft | 148 kts | 86° |
| 2026-05-06 18:40 | 51.47746 | -0.51788 | 537 ft | 148 kts | 87° |
| 2026-05-06 18:40 | 51.47748 | -0.50141 | 324 ft | 146 kts | 86° |
| 2026-05-06 18:41 | 51.47752 | -0.48505 | 132 ft | 145 kts | 88° |
| 2026-05-06 18:41 | 51.47757 | -0.46985 | 100 ft | 114 kts | 90° |
| 2026-05-06 18:41 | 51.47760 | -0.46053 | 97 ft | 64 kts | 90° |
| 2026-05-06 18:41 | 51.47758 | -0.45598 | 96 ft | 23 kts | 100° |
| 2026-05-06 18:42 | 51.47669 | -0.45474 | 98 ft | 18 kts | 169° |
| 2026-05-06 18:42 | 51.47562 | -0.45461 | 95 ft | 16 kts | 165° |
| 2026-05-06 18:42 | 51.47513 | -0.45386 | 99 ft | 10 kts | 102° |
| 2026-05-06 18:42 | 51.47505 | -0.45254 | 98 ft | 13 kts | 88° |
| 2026-05-06 18:43 | 51.47507 | -0.45086 | 98 ft | 15 kts | 89° |
| 2026-05-06 18:43 | 51.47510 | -0.44929 | 99 ft | 16 kts | 88° |
| 2026-05-06 18:43 | 51.47510 | -0.44732 | 98 ft | 19 kts | 90° |
| 2026-05-06 18:43 | 51.47503 | -0.44502 | 98 ft | 22 kts | 91° |
| 2026-05-06 18:44 | 51.47504 | -0.44244 | 98 ft | 24 kts | 90° |
| 2026-05-06 18:44 | 51.47466 | -0.44084 | 98 ft | 16 kts | 151° |
| 2026-05-06 18:44 | 51.47349 | -0.44059 | 97 ft | 19 kts | 179° |
| 2026-05-06 18:44 | 51.47208 | -0.44060 | 99 ft | 22 kts | 180° |
| 2026-05-06 18:45 | 51.47051 | -0.44059 | 99 ft | 16 kts | 180° |
| 2026-05-06 18:45 | 51.46944 | -0.44059 | 95 ft | 17 kts | 180° |
| 2026-05-06 18:45 | 51.46816 | -0.44058 | 97 ft | 20 kts | 187° |
| 2026-05-06 18:45 | 51.46761 | -0.44136 | 99 ft | 16 kts | 253° |
| 2026-05-06 18:46 | 51.46752 | -0.44398 | 95 ft | 19 kts | 268° |
| 2026-05-06 18:46 | 51.46751 | -0.44600 | 95 ft | 18 kts | 271° |
| 2026-05-06 18:46 | 51.46746 | -0.44809 | 99 ft | 14 kts | 254° |
| 2026-05-06 18:46 | 51.46763 | -0.44872 | 97 ft | 7 kts | 346° |
| 2026-05-06 18:47 | 51.46803 | -0.44882 | 98 ft | 0 kts | 357° |
| 2026-05-06 18:47 | 51.46815 | -0.44883 | 96 ft | 3 kts | 359° |
| 2026-05-06 18:47 | 51.46821 | -0.44883 | 97 ft | 1 kts | 359° |
| 2026-05-06 18:47 | 51.46831 | -0.44883 | 96 ft | 2 kts | 359° |
| 2026-05-06 18:48 | 51.46836 | -0.44883 | 95 ft | 1 kts | 359° |
| 2026-05-06 18:48 | 51.46838 | -0.44883 | 95 ft | 0 kts | 359° |
| 2026-05-06 18:48 | 51.46839 | -0.44883 | 95 ft | 1 kts | 359° |
| 2026-05-06 18:48 | 51.46840 | -0.44883 | 95 ft | 0 kts | 359° |
| 2026-05-06 18:56 | 51.47504 | -0.44206 | 96 ft | 0 kts | 90° |
| 2026-05-06 18:56 | 51.47723 | -0.59924 | 1551 ft | 0 kts | 86° |
| 2026-05-06 18:56 | 51.48694 | -0.86098 | 4005 ft | 0 kts | 111° |
| 2026-05-06 18:56 | 51.47606 | -0.78348 | 3817 ft | 0 kts | 86° |